• Join FlightAware (Why Join?)
  • Login
  • US Flag 
Gobble Gobble! 
03:16AM EST


 

Airport Tracker/Info


-or-


 

Live Flight TrackerFlight Track Log ✈ GGN7281 ✈ 03-May-2013 ✈ KALB - CYYZ

Flight Track Log - Related Links

Times and Time Zones

All times are in EDT time to prevent confusion due to time zone crossing. See the GGN7281 flight status page for this flight to view local times or setup timezone preferences in your user account.

Time Position Orientation Groundspeed Altitude Reporting Facility
EDT Latitude Longitude Course Direction KTS MPH feet Rate Location/Type
11:13AM 42.7361 -73.8111 220° Southwest 135 155 1,000  Level Boston Center
11:14AM 42.7022 -73.8500 220° Southwest 160 184 4,100 2,100 Climbing Boston Center
11:15AM 42.7161 -73.9125 248° West 166 191 6,100 1,860 Climbing Boston Center
11:16AM 42.7192 -73.9803 274° West 172 198 7,900 1,740 Climbing Boston Center
11:17AM 42.7244 -74.0511 276° West 184 212 9,600 1,740 Climbing Boston Center
11:18AM 42.7278 -74.1219 274° West 189 217 11,400 1,680 Climbing Boston Center
11:19AM 42.7328 -74.1925 276° West 203 234 13,000 1,680 Climbing Boston Center
11:20AM 42.7378 -74.2747 275° West 203 234 14,800 1,620 Climbing Boston Center
11:21AM 42.7408 -74.3483 273° West 203 234 16,300 1,620 Climbing Boston Center
11:22AM 42.7478 -74.4333 276° West 213 245 18,100 1,440 Climbing Boston Center
11:23AM 42.7525 -74.5128 275° West 218 251 19,200 900 Climbing Boston Center
11:24AM 42.7572 -74.5919 275° West 218 251 20,000 360 Climbing Boston Center
11:25AM 42.7636 -74.6914 275° West 241 277 20,000  Level Boston Center
11:26AM 42.7700 -74.7961 275° West 267 307 20,000  Level Boston Center
11:27AM 42.7739 -74.9039 273° West 277 319 20,000  Level Boston Center
11:28AM 42.7819 -75.0117 276° West 282 325 20,000  Level Boston Center
11:29AM 42.7878 -75.1194 274° West 287 330 20,000  Level Boston Center
11:30AM 42.7933 -75.2300 274° West 292 336 20,000  Level Boston Center
11:31AM 42.7972 -75.3236 273° West 292 336 20,000  Level Boston Center
11:32AM 42.8050 -75.4344 276° West 292 336 20,000  Level Boston Center
11:33AM 42.8083 -75.5422 272° West 292 336 20,000  Level Boston Center
11:34AM 42.8172 -75.6700 275° West 292 336 20,000  Level Boston Center
11:35AM 42.8225 -75.7778 274° West 292 336 20,000  Level Boston Center
11:36AM 42.8275 -75.8858 274° West 292 336 20,000  Level Boston Center
11:37AM 42.8347 -75.9936 275° West 292 336 20,000  Level Boston Center
11:39AM 42.8433 -76.1822 274° West 272 313 20,000  Level Cleveland Center
11:40AM 42.8333 -76.2667 261° West 280 322 20,000  Level Toronto Center
11:41AM 42.8333 -76.3833 270° West 290 334 20,000  Level Toronto Center
11:42AM 42.8500 -76.5000 281° West 280 322 20,000  Level Toronto Center
11:43AM 42.8500 -76.6167 270° West 290 334 20,000  Level Toronto Center
11:44AM 42.8667 -76.7000 285° West 290 334 20,000  Level Toronto Center
11:45AM 42.8667 -76.8167 270° West 290 334 20,000  Level Toronto Center
11:46AM 42.8667 -76.9333 270° West 290 334 20,000  Level Toronto Center
11:47AM 42.8836 -77.0553 281° West 289 333 20,000  Level Cleveland Center
11:48AM 42.9075 -77.1561 288° West 289 333 20,000  Level Cleveland Center
11:49AM 42.9294 -77.2597 286° West 289 333 20,000  Level Cleveland Center
11:50AM 42.9489 -77.3636 284° West 289 333 20,000  Level Cleveland Center
11:51AM 42.9683 -77.4647 285° West 289 333 20,000 -540 Level Cleveland Center
11:52AM 42.9878 -77.5717 284° West 289 333 19,000 -900 Descending Cleveland Center
11:53AM 43.0075 -77.6844 283° West 296 341 18,200 -600 Descending Cleveland Center
11:54AM 43.0289 -77.7942 285° West 296 341 17,800 -600 Descending Cleveland Center
11:55AM 43.0481 -77.9042 283° West 296 341 17,100 -900 Descending Cleveland Center
11:56AM 43.0672 -78.0114 284° West 296 341 16,100 -960 Descending Cleveland Center
11:57AM 43.0883 -78.1214 285° West 296 341 15,200 -1,020 Descending Cleveland Center
11:58AM 43.1075 -78.2344 283° West 296 341 14,100 -600 Descending Cleveland Center
11:59AM 43.1261 -78.3389 284° West 296 341 14,000 -60 Descending Cleveland Center
12:00PM 43.1469 -78.4406 286° West 296 341 14,000  Level Cleveland Center
12:01PM 43.1633 -78.5425 282° West 291 335 14,000  Level Cleveland Center
12:02PM 43.1797 -78.6444 282° West 286 329 14,000  Level Cleveland Center
12:03PM 43.1981 -78.7464 284° West 279 321 14,000  Level Cleveland Center
12:05PM 43.2333 -78.9500 283° West 280 322 14,000  Level Toronto Center